createdAt,value
2019-05-16T00:02:08.212Z,67.89
2019-05-16T00:04:42.271Z,67.82
2019-05-16T00:07:18.944Z,67.66
2019-05-16T00:09:51.749Z,67.72
2019-05-16T00:12:25.720Z,68.01
2019-05-16T00:14:58.902Z,67.77
2019-05-16T00:17:32.836Z,67.75
2019-05-16T00:20:09.260Z,67.71
2019-05-16T00:22:43.903Z,67.67
2019-05-16T00:25:18.111Z,67.69
2019-05-16T00:27:52.018Z,67.69
2019-05-16T00:30:28.496Z,67.72
2019-05-16T00:33:01.377Z,67.76
2019-05-16T00:35:35.219Z,67.75
2019-05-16T00:38:09.083Z,67.86
2019-05-16T00:40:43.917Z,67.79
2019-05-16T00:43:18.384Z,67.73
2019-05-16T00:45:53.583Z,67.68
2019-05-16T00:48:28.855Z,67.85
2019-05-16T00:51:03.111Z,67.69
2019-05-16T00:53:38.100Z,67.71
2019-05-16T00:56:11.352Z,67.62
2019-05-16T00:58:48.437Z,67.88
2019-05-16T01:01:22.473Z,67.69
2019-05-16T01:03:58.610Z,67.87
2019-05-16T01:06:32.225Z,67.86
2019-05-16T01:09:08.604Z,67.69
2019-05-16T01:11:42.666Z,67.87
2019-05-16T01:14:17.728Z,67.87
2019-05-16T01:16:51.613Z,67.77
2019-05-16T01:19:27.793Z,67.76
2019-05-16T01:22:02.037Z,67.88
2019-05-16T01:24:35.164Z,67.93
2019-05-16T01:27:09.060Z,67.93
2019-05-16T01:29:43.178Z,67.85
2019-05-16T01:32:18.829Z,67.93
2019-05-16T01:34:50.983Z,67.90
2019-05-16T01:37:24.976Z,68.16
2019-05-16T01:39:58.749Z,68.02
2019-05-16T01:42:32.759Z,68.04
2019-05-16T01:45:08.439Z,68.16
2019-05-16T01:47:42.385Z,68.55
2019-05-16T01:50:18.138Z,68.40
2019-05-16T01:52:52.318Z,68.52
2019-05-16T01:55:26.089Z,68.59
2019-05-16T01:57:59.924Z,69.03
2019-05-16T02:00:37.735Z,68.83
2019-05-16T02:03:09.895Z,68.88
2019-05-16T02:05:42.984Z,69.05
2019-05-16T02:08:18.280Z,69.09
2019-05-16T02:10:52.216Z,69.01
2019-05-16T02:13:28.392Z,69.27
2019-05-16T02:16:01.871Z,69.13
2019-05-16T02:18:35.046Z,69.06
2019-05-16T02:21:08.885Z,69.11
2019-05-16T02:23:42.867Z,69.10
2019-05-16T02:26:16.048Z,69.14
2019-05-16T02:28:50.960Z,69.23
2019-05-16T02:31:25.436Z,69.14
2019-05-16T02:34:01.206Z,69.14
2019-05-16T02:36:35.149Z,69.12
2019-05-16T02:39:11.244Z,69.10
2019-05-16T02:41:46.126Z,69.04
2019-05-16T02:44:20.816Z,69.12
2019-05-16T02:46:55.627Z,69.17
2019-05-16T02:49:30.698Z,69.19
2019-05-16T02:52:05.118Z,69.20
2019-05-16T02:54:41.209Z,69.13
2019-05-16T02:57:14.822Z,69.16
2019-05-16T02:59:50.713Z,69.30
2019-05-16T03:02:23.648Z,69.23
2019-05-16T03:04:56.768Z,69.25
2019-05-16T03:07:41.111Z,69.23
2019-05-16T03:10:10.905Z,69.29
2019-05-16T03:12:44.324Z,69.26
2019-05-16T03:15:21.525Z,69.22
2019-05-16T03:17:58.794Z,69.25
2019-05-16T03:20:33.855Z,69.25
2019-05-16T03:23:11.014Z,69.29
2019-05-16T03:25:43.302Z,69.22
2019-05-16T03:28:17.121Z,69.23
2019-05-16T03:30:54.441Z,69.24
2019-05-16T03:33:35.174Z,69.19
2019-05-16T03:36:04.610Z,69.22
2019-05-16T03:38:41.084Z,69.25
2019-05-16T03:41:13.587Z,69.23
2019-05-16T03:43:50.513Z,69.25
2019-05-16T03:46:23.130Z,69.23
2019-05-16T03:48:57.069Z,69.27
2019-05-16T03:51:31.116Z,69.30
2019-05-16T03:54:04.280Z,69.30
2019-05-16T03:56:40.578Z,69.30
2019-05-16T03:59:13.609Z,69.33
2019-05-16T04:01:47.556Z,69.30
2019-05-16T04:04:21.527Z,69.26
2019-05-16T04:06:55.415Z,69.25
2019-05-16T04:09:31.547Z,69.20
2019-05-16T04:12:04.834Z,69.24
2019-05-16T04:14:40.881Z,69.22
2019-05-16T04:17:14.175Z,69.19
2019-05-16T04:19:50.678Z,69.18
2019-05-16T04:22:23.745Z,69.20
2019-05-16T04:24:56.844Z,69.15
2019-05-16T04:27:31.110Z,69.23
2019-05-16T04:30:07.299Z,69.26
2019-05-16T04:32:42.122Z,69.17
2019-05-16T04:35:16.468Z,69.19
2019-05-16T04:37:51.327Z,69.24
2019-05-16T04:40:25.408Z,69.24
2019-05-16T04:43:01.189Z,69.30
2019-05-16T04:45:34.779Z,69.20
2019-05-16T04:48:11.242Z,69.24
2019-05-16T04:50:44.225Z,69.13
2019-05-16T04:53:20.639Z,69.15
2019-05-16T04:55:53.599Z,69.07
2019-05-16T04:58:27.582Z,69.10
2019-05-16T05:01:01.947Z,69.12
2019-05-16T05:03:35.914Z,69.04
2019-05-16T05:06:11.325Z,68.77
2019-05-16T05:08:54.021Z,68.77
2019-05-16T05:11:21.668Z,68.86
2019-05-16T05:13:55.766Z,68.76
2019-05-16T05:16:30.631Z,68.86
2019-05-16T05:19:04.979Z,68.81
2019-05-16T05:21:40.924Z,68.75
2019-05-16T05:24:14.468Z,68.69
2019-05-16T05:26:50.366Z,68.67
2019-05-16T05:29:23.973Z,68.68
2019-05-16T05:32:03.564Z,68.64
2019-05-16T05:34:33.578Z,68.60
2019-05-16T05:37:07.426Z,68.63
2019-05-16T05:39:42.701Z,68.61
2019-05-16T05:42:16.750Z,68.65
2019-05-16T05:44:50.808Z,68.60
2019-05-16T05:47:24.912Z,68.50
2019-05-16T05:50:00.650Z,68.53
2019-05-16T05:52:34.325Z,68.49
2019-05-16T05:55:10.531Z,68.52
2019-05-16T05:57:44.047Z,67.89
2019-05-16T06:00:21.058Z,67.64
2019-05-16T06:02:54.197Z,67.12
2019-05-16T06:05:30.420Z,66.78
2019-05-16T06:08:03.580Z,66.15
2019-05-16T06:10:37.457Z,65.31
2019-05-16T06:13:11.266Z,65.08
2019-05-16T06:15:45.129Z,65.25
2019-05-16T06:18:19.831Z,64.96
2019-05-16T06:20:54.094Z,64.69
2019-05-16T06:23:30.814Z,64.48
2019-05-16T06:26:03.551Z,64.05
2019-05-16T06:28:37.505Z,64.47
2019-05-16T06:31:14.017Z,64.38
2019-05-16T06:33:47.065Z,64.47
2019-05-16T06:36:21.739Z,64.14
2019-05-16T06:38:55.556Z,64.19
2019-05-16T06:41:30.407Z,63.91
2019-05-16T06:44:04.526Z,63.60
2019-05-16T06:46:54.031Z,64.05
2019-05-16T06:49:14.154Z,63.95
2019-05-16T06:51:48.146Z,64.00
2019-05-16T06:54:22.123Z,63.47
2019-05-16T06:56:55.984Z,63.46
2019-05-16T06:59:29.885Z,62.70
2019-05-16T07:02:03.903Z,62.75
2019-05-16T07:04:37.140Z,61.51
2019-05-16T07:07:12.671Z,60.17
2019-05-16T07:09:58.078Z,61.51
2019-05-16T07:12:22.259Z,60.78
2019-05-16T07:14:55.543Z,60.56
2019-05-16T07:17:30.679Z,59.66
2019-05-16T07:20:06.716Z,59.33
2019-05-16T07:22:40.841Z,58.37
2019-05-16T07:25:15.117Z,58.55
2019-05-16T07:27:50.965Z,58.83
2019-05-16T07:30:24.705Z,58.46
2019-05-16T07:33:00.211Z,57.81
2019-05-16T07:35:33.469Z,56.86
2019-05-16T07:38:06.769Z,58.11
2019-05-16T07:40:40.657Z,57.35
2019-05-16T07:43:13.774Z,58.33
2019-05-16T07:45:47.605Z,58.02
2019-05-16T07:48:21.868Z,57.31
2019-05-16T07:50:56.161Z,54.83
2019-05-16T07:53:32.718Z,56.03
2019-05-16T07:56:05.143Z,54.77
2019-05-16T07:58:38.270Z,56.21
2019-05-16T08:01:12.989Z,54.21
2019-05-16T08:03:47.024Z,55.34
2019-05-16T08:06:20.298Z,53.21
2019-05-16T08:08:54.396Z,53.21
2019-05-16T08:11:30.383Z,53.00
2019-05-16T08:14:03.819Z,53.80
2019-05-16T08:16:37.035Z,52.60
2019-05-16T08:19:10.974Z,52.36
2019-05-16T08:21:44.804Z,53.91
2019-05-16T08:24:20.337Z,53.53
2019-05-16T08:26:53.438Z,52.33
2019-05-16T08:29:27.664Z,51.90
2019-05-16T08:32:02.283Z,50.63
2019-05-16T08:34:36.364Z,51.76
2019-05-16T08:37:32.760Z,50.15
2019-05-16T08:39:45.937Z,50.31
2019-05-16T08:42:20.769Z,50.78
2019-05-16T08:44:54.911Z,49.41
2019-05-16T08:47:32.144Z,50.19
2019-05-16T08:52:44.748Z,48.65
2019-05-16T08:55:21.752Z,47.61
2019-05-16T08:57:54.693Z,47.46
2019-05-16T09:00:33.137Z,47.30
2019-05-16T09:03:04.656Z,49.71
2019-05-16T09:05:42.645Z,49.32
2019-05-16T09:08:14.144Z,48.40
2019-05-16T09:10:34.456Z,48.92
2019-05-16T09:10:59.734Z,49.49
2019-05-16T09:13:23.478Z,46.88
2019-05-16T09:15:57.180Z,49.20
2019-05-16T09:18:40.678Z,47.89
2019-05-16T09:21:07.434Z,50.05
2019-05-16T09:23:41.718Z,49.09
2019-05-16T09:26:19.280Z,48.82
2019-05-16T09:28:51.679Z,48.40
2019-05-16T09:31:27.668Z,49.13
2019-05-16T09:34:02.142Z,49.62
2019-05-16T09:36:37.101Z,50.29
2019-05-16T09:39:10.285Z,49.96
2019-05-16T09:41:50.965Z,49.59
2019-05-16T09:44:20.095Z,49.37
2019-05-16T09:46:56.839Z,49.39
2019-05-16T09:49:29.712Z,48.88
2019-05-16T09:52:03.847Z,49.06
2019-05-16T09:54:38.158Z,48.10
2019-05-16T09:57:12.012Z,47.95
2019-05-16T09:59:46.574Z,48.36
2019-05-16T10:02:20.697Z,48.58
2019-05-16T10:04:53.828Z,48.77
2019-05-16T10:07:29.150Z,49.03
2019-05-16T10:10:03.168Z,48.82
2019-05-16T10:12:37.104Z,49.37
2019-05-16T10:15:12.870Z,48.74
2019-05-16T10:17:47.613Z,48.48
2019-05-16T10:20:21.878Z,48.76
2019-05-16T10:22:57.951Z,48.92
2019-05-16T10:25:31.401Z,49.67
2019-05-16T10:28:05.375Z,49.99
2019-05-16T10:30:38.600Z,49.84
2019-05-16T10:33:12.514Z,49.97
2019-05-16T10:35:48.008Z,50.12
2019-05-16T10:38:22.060Z,50.17
2019-05-16T10:40:56.609Z,50.65
2019-05-16T10:43:30.542Z,50.48
2019-05-16T10:46:06.510Z,50.65
2019-05-16T10:48:40.006Z,50.54
2019-05-16T10:51:13.922Z,50.72
2019-05-16T10:54:13.125Z,51.59
2019-05-16T10:56:23.547Z,52.68
2019-05-16T10:59:28.485Z,52.78
2019-05-16T11:01:33.137Z,53.33
2019-05-16T11:04:07.604Z,53.34
2019-05-16T11:06:41.601Z,54.07
2019-05-16T11:09:17.343Z,55.41
2019-05-16T11:11:51.000Z,55.08
2019-05-16T11:14:27.980Z,55.11
2019-05-16T11:17:00.379Z,55.48
2019-05-16T11:19:34.260Z,56.02
2019-05-16T11:22:08.131Z,57.39
2019-05-16T11:24:42.156Z,56.27
2019-05-16T11:27:15.317Z,56.37
2019-05-16T11:29:49.148Z,56.63
2019-05-16T11:32:23.038Z,56.92
2019-05-16T11:34:57.048Z,57.12
2019-05-16T11:37:30.856Z,57.29
2019-05-16T11:40:09.278Z,57.78
2019-05-16T11:42:43.186Z,58.58
2019-05-16T11:45:17.352Z,59.17
2019-05-16T11:47:51.308Z,59.17
2019-05-16T11:50:27.846Z,60.24
